Time,TemperatureF,DewpointF,PressureIn,WindDirection,WindDirectionDegrees,WindSpeedMPH,WindSpeedGustMPH,Humidity,HourlyPrecipIn,Conditions,Clouds,dailyrainin,SoftwareType,DateUTC
2013-02-21 00:03:00,20.0,2.0,-100.00,WNW,285,7.0,21.0,45,-99.99,,,-99.99,,2013-02-21 05:03:00,
2013-02-21 00:12:00,20.0,2.0,-100.00,WNW,300,11.0,17.0,45,-99.99,,,-99.99,,2013-02-21 05:12:00,
2013-02-21 00:22:00,20.0,2.0,-100.00,WNW,300,11.0,17.0,45,-99.99,,,-99.99,,2013-02-21 05:22:00,
2013-02-21 00:36:00,20.0,3.0,-100.00,NW,305,6.0,13.0,46,-99.99,,,-99.99,,2013-02-21 05:36:00,
2013-02-21 00:46:00,20.0,3.0,-100.00,WNW,290,9.0,17.0,46,-99.99,,,-99.99,,2013-02-21 05:46:00,
2013-02-21 01:01:00,20.0,3.0,-100.00,NW,305,8.0,19.0,46,-99.99,,,-99.99,,2013-02-21 06:01:00,
2013-02-21 01:11:00,20.0,3.0,-100.00,WNW,295,8.0,21.0,46,-99.99,,,-99.99,,2013-02-21 06:11:00,
2013-02-21 01:21:00,20.0,3.0,-100.00,WNW,295,8.0,21.0,46,-99.99,,,-99.99,,2013-02-21 06:21:00,
2013-02-21 01:31:00,20.0,3.0,-100.00,NW,305,8.0,16.0,47,-99.99,,,-99.99,,2013-02-21 06:31:00,
2013-02-21 01:41:00,20.0,3.0,-100.00,WNW,300,8.0,14.0,47,-99.99,,,-99.99,,2013-02-21 06:41:00,
2013-02-21 01:52:00,20.0,3.0,-100.00,WNW,300,8.0,14.0,47,-99.99,,,-99.99,,2013-02-21 06:52:00,
2013-02-21 02:01:00,20.0,4.0,-100.00,WNW,295,7.0,14.0,48,-99.99,,,-99.99,,2013-02-21 07:01:00,
2013-02-21 02:11:00,20.0,4.0,-100.00,West,275,5.0,16.0,48,-99.99,,,-99.99,,2013-02-21 07:11:00,
2013-02-21 02:21:00,20.0,4.0,-100.00,West,275,5.0,16.0,48,-99.99,,,-99.99,,2013-02-21 07:21:00,
2013-02-21 02:32:00,20.0,4.0,-100.00,WNW,300,7.0,14.0,48,-99.99,,,-99.99,,2013-02-21 07:32:00,
2013-02-21 02:42:00,20.0,4.0,-100.00,WNW,285,5.0,11.0,48,-99.99,,,-99.99,,2013-02-21 07:42:00,
2013-02-21 02:52:00,20.0,4.0,-100.00,WNW,285,5.0,11.0,48,-99.99,,,-99.99,,2013-02-21 07:52:00,
2013-02-21 03:02:00,20.0,4.0,-100.00,NW,315,6.0,15.0,49,-99.99,,,-99.99,,2013-02-21 08:02:00,
2013-02-21 03:11:00,21.0,5.0,-100.00,WNW,285,5.0,17.0,49,-99.99,,,-99.99,,2013-02-21 08:11:00,
2013-02-21 03:21:00,21.0,5.0,-100.00,WNW,285,5.0,17.0,49,-99.99,,,-99.99,,2013-02-21 08:21:00,
2013-02-21 03:32:00,21.0,5.0,-100.00,WNW,285,8.0,21.0,49,-99.99,,,-99.99,,2013-02-21 08:32:00,
2013-02-21 03:42:00,21.0,5.0,-100.00,NW,320,9.0,19.0,49,-99.99,,,-99.99,,2013-02-21 08:42:00,
2013-02-21 03:52:00,21.0,5.0,-100.00,NW,320,9.0,19.0,49,-99.99,,,-99.99,,2013-02-21 08:52:00,
2013-02-21 04:02:00,21.0,5.0,-100.00,WNW,290,9.0,18.0,49,-99.99,,,-99.99,,2013-02-21 09:02:00,
2013-02-21 04:11:00,21.0,5.0,-100.00,WNW,290,9.0,18.0,49,-99.99,,,-99.99,,2013-02-21 09:11:00,
2013-02-21 07:32:00,20.0,5.0,-100.00,WNW,285,8.0,16.0,50,-99.99,,,-99.99,,2013-02-21 12:32:00,
2013-02-21 07:43:00,20.0,5.0,-100.00,NW,320,7.0,16.0,50,-99.99,,,-99.99,,2013-02-21 12:43:00,
2013-02-21 07:53:00,20.0,5.0,-100.00,NW,320,7.0,16.0,50,-99.99,,,-99.99,,2013-02-21 12:53:00,
2013-02-21 08:02:00,21.0,5.0,-100.00,West,270,4.0,15.0,50,-99.99,,,-99.99,,2013-02-21 13:02:00,
2013-02-21 08:12:00,21.0,5.0,-100.00,WNW,300,6.0,15.0,50,-99.99,,,-99.99,,2013-02-21 13:12:00,
2013-02-21 08:22:00,21.0,5.0,-100.00,WNW,300,6.0,15.0,50,-99.99,,,-99.99,,2013-02-21 13:22:00,
2013-02-21 08:32:00,21.0,5.0,-100.00,WNW,300,7.0,21.0,49,-99.99,,,-99.99,,2013-02-21 13:32:00,
2013-02-21 08:42:00,21.0,5.0,-100.00,WNW,300,9.0,17.0,49,-99.99,,,-99.99,,2013-02-21 13:42:00,
2013-02-21 08:52:00,21.0,5.0,-100.00,WNW,300,9.0,17.0,49,-99.99,,,-99.99,,2013-02-21 13:52:00,
2013-02-21 09:02:00,22.0,5.0,-100.00,WNW,295,9.0,22.0,49,-99.99,,,-99.99,,2013-02-21 14:02:00,
2013-02-21 09:11:00,22.0,5.0,-100.00,WNW,290,7.0,19.0,48,-99.99,,,-99.99,,2013-02-21 14:11:00,
2013-02-21 09:22:00,22.0,5.0,-100.00,WNW,290,7.0,19.0,48,-99.99,,,-99.99,,2013-02-21 14:22:00,
2013-02-21 09:32:00,22.0,5.0,-100.00,WNW,300,7.0,18.0,48,-99.99,,,-99.99,,2013-02-21 14:32:00,
2013-02-21 09:42:00,22.0,6.0,-100.00,NNW,330,7.0,14.0,48,-99.99,,,-99.99,,2013-02-21 14:42:00,
2013-02-21 09:52:00,22.0,6.0,-100.00,NNW,330,7.0,14.0,48,-99.99,,,-99.99,,2013-02-21 14:52:00,
2013-02-21 10:02:00,22.0,5.0,-100.00,WNW,295,8.0,31.0,47,-99.99,,,-99.99,,2013-02-21 15:02:00,
2013-02-21 10:12:00,22.0,5.0,-100.00,WNW,295,7.0,20.0,46,-99.99,,,-99.99,,2013-02-21 15:12:00,
2013-02-21 10:22:00,22.0,5.0,-100.00,WNW,295,7.0,20.0,46,-99.99,,,-99.99,,2013-02-21 15:22:00,
2013-02-21 10:32:00,24.0,6.0,-100.00,WSW,245,4.0,12.0,46,-99.99,,,-99.99,,2013-02-21 15:32:00,
2013-02-21 10:42:00,23.0,5.0,-100.00,West,260,7.0,21.0,46,-99.99,,,-99.99,,2013-02-21 15:42:00,
2013-02-21 10:52:00,23.0,5.0,-100.00,West,260,7.0,21.0,46,-99.99,,,-99.99,,2013-02-21 15:52:00,
2013-02-21 11:00:00,25.0,6.0,-100.00,NW,325,7.0,17.0,43,-99.99,,,-99.99,,2013-02-21 16:00:00,
2013-02-21 11:02:00,24.0,5.0,-100.00,NW,305,6.0,12.0,45,-99.99,,,-99.99,,2013-02-21 16:02:00,
2013-02-21 11:12:00,24.0,5.0,-100.00,NW,305,9.0,26.0,44,-99.99,,,-99.99,,2013-02-21 16:12:00,
2013-02-21 11:22:00,24.0,5.0,-100.00,NW,305,9.0,26.0,44,-99.99,,,-99.99,,2013-02-21 16:22:00,
2013-02-21 11:32:00,25.0,5.0,-100.00,WNW,295,11.0,20.0,43,-99.99,,,-99.99,,2013-02-21 16:32:00,
2013-02-21 11:42:00,25.0,6.0,-100.00,NW,325,7.0,17.0,43,-99.99,,,-99.99,,2013-02-21 16:42:00,
2013-02-21 11:52:00,25.0,6.0,-100.00,NW,325,7.0,17.0,43,-99.99,,,-99.99,,2013-02-21 16:52:00,
2013-02-21 12:00:00,27.0,6.0,-100.00,NW,315,6.0,19.0,41,-99.99,,,-99.99,,2013-02-21 17:00:00,
2013-02-21 12:11:00,26.0,6.0,-100.00,West,265,7.0,23.0,42,-99.99,,,-99.99,,2013-02-21 17:11:00,
2013-02-21 12:21:00,26.0,6.0,-100.00,West,265,7.0,23.0,42,-99.99,,,-99.99,,2013-02-21 17:21:00,
2013-02-21 12:32:00,26.0,5.0,-100.00,NW,305,7.0,19.0,41,-99.99,,,-99.99,,2013-02-21 17:32:00,
2013-02-21 12:42:00,27.0,6.0,-100.00,NW,315,6.0,19.0,41,-99.99,,,-99.99,,2013-02-21 17:42:00,
2013-02-21 12:52:00,27.0,6.0,-100.00,NW,315,6.0,19.0,41,-99.99,,,-99.99,,2013-02-21 17:52:00,
2013-02-21 13:12:00,27.0,6.0,-100.00,NNW,335,9.0,16.0,40,-99.99,,,-99.99,,2013-02-21 18:12:00,
2013-02-21 13:22:00,27.0,6.0,-100.00,NNW,335,9.0,16.0,40,-99.99,,,-99.99,,2013-02-21 18:22:00,
2013-02-21 13:32:00,27.0,6.0,-100.00,North,0,6.0,24.0,40,-99.99,,,-99.99,,2013-02-21 18:32:00,
2013-02-21 13:42:00,27.0,6.0,-100.00,WNW,295,13.0,24.0,40,-99.99,,,-99.99,,2013-02-21 18:42:00,
2013-02-21 13:52:00,27.0,6.0,-100.00,WNW,295,13.0,24.0,40,-99.99,,,-99.99,,2013-02-21 18:52:00,
2013-02-21 14:02:00,27.0,6.0,-100.00,West,280,10.0,22.0,41,-99.99,,,-99.99,,2013-02-21 19:02:00,
2013-02-21 14:12:00,27.0,6.0,-100.00,WNW,300,8.0,18.0,41,-99.99,,,-99.99,,2013-02-21 19:12:00,
2013-02-21 14:21:00,27.0,6.0,-100.00,WNW,300,8.0,18.0,41,-99.99,,,-99.99,,2013-02-21 19:21:00,
2013-02-21 14:32:00,27.0,7.0,-100.00,WNW,295,5.0,16.0,41,-99.99,,,-99.99,,2013-02-21 19:32:00,
2013-02-21 14:42:00,27.0,7.0,-100.00,NW,310,7.0,17.0,42,-99.99,,,-99.99,,2013-02-21 19:42:00,
2013-02-21 14:52:00,27.0,7.0,-100.00,NW,310,7.0,17.0,42,-99.99,,,-99.99,,2013-02-21 19:52:00,
2013-02-21 15:01:00,27.0,7.0,-100.00,NW,320,11.0,23.0,42,-99.99,,,-99.99,,2013-02-21 20:01:00,
2013-02-21 15:11:00,28.0,8.0,-100.00,WNW,295,5.0,23.0,42,-99.99,,,-99.99,,2013-02-21 20:11:00,
2013-02-21 15:21:00,28.0,8.0,-100.00,WNW,295,5.0,23.0,42,-99.99,,,-99.99,,2013-02-21 20:21:00,
2013-02-21 15:32:00,30.0,8.0,-100.00,NW,325,8.0,15.0,40,-99.99,,,-99.99,,2013-02-21 20:32:00,
2013-02-21 15:42:00,29.0,8.0,-100.00,WNW,285,9.0,20.0,40,-99.99,,,-99.99,,2013-02-21 20:42:00,
2013-02-21 15:53:00,29.0,8.0,-100.00,WNW,285,9.0,20.0,40,-99.99,,,-99.99,,2013-02-21 20:53:00,
2013-02-21 16:02:00,29.0,8.0,-100.00,West,275,6.0,20.0,40,-99.99,,,-99.99,,2013-02-21 21:02:00,
2013-02-21 16:12:00,30.0,8.0,-100.00,ESE,120,3.0,14.0,39,-99.99,,,-99.99,,2013-02-21 21:12:00,
2013-02-21 16:22:00,30.0,8.0,-100.00,ESE,120,3.0,14.0,39,-99.99,,,-99.99,,2013-02-21 21:22:00,
2013-02-21 16:32:00,30.0,8.0,-100.00,WNW,295,7.0,18.0,39,-99.99,,,-99.99,,2013-02-21 21:32:00,
2013-02-21 16:42:00,30.0,8.0,-100.00,NW,320,8.0,22.0,39,-99.99,,,-99.99,,2013-02-21 21:42:00,
2013-02-21 16:52:00,30.0,8.0,-100.00,NW,320,8.0,22.0,39,-99.99,,,-99.99,,2013-02-21 21:52:00,
2013-02-21 17:01:00,29.0,8.0,-100.00,NNW,330,8.0,20.0,40,-99.99,,,-99.99,,2013-02-21 22:01:00,
2013-02-21 17:11:00,29.0,8.0,-100.00,NNW,330,8.0,19.0,40,-99.99,,,-99.99,,2013-02-21 22:11:00,
2013-02-21 17:21:00,29.0,8.0,-100.00,NNW,330,8.0,19.0,40,-99.99,,,-99.99,,2013-02-21 22:21:00,
2013-02-21 17:32:00,28.0,8.0,-100.00,SW,235,5.0,19.0,41,-99.99,,,-99.99,,2013-02-21 22:32:00,
2013-02-21 17:42:00,28.0,8.0,-100.00,WNW,285,5.0,23.0,42,-99.99,,,-99.99,,2013-02-21 22:42:00,
2013-02-21 17:52:00,28.0,8.0,-100.00,WNW,285,5.0,23.0,42,-99.99,,,-99.99,,2013-02-21 22:52:00,
2013-02-21 18:11:00,26.0,7.0,-100.00,NW,320,6.0,19.0,44,-99.99,,,-99.99,,2013-02-21 23:11:00,
2013-02-21 18:21:00,26.0,7.0,-100.00,NW,320,6.0,19.0,44,-99.99,,,-99.99,,2013-02-21 23:21:00,
2013-02-21 18:30:00,24.0,6.0,-100.00,North,350,4.0,18.0,47,-99.99,,,-99.99,,2013-02-21 23:30:00,
2013-02-21 18:32:00,26.0,7.0,-100.00,North,0,4.0,13.0,44,-99.99,,,-99.99,,2013-02-21 23:32:00,
2013-02-21 18:42:00,25.0,7.0,-100.00,NNW,340,7.0,10.0,45,-99.99,,,-99.99,,2013-02-21 23:42:00,
2013-02-21 18:52:00,24.0,7.0,-100.00,North,0,8.0,19.0,46,-99.99,,,-99.99,,2013-02-21 23:52:00,
2013-02-21 19:02:00,24.0,7.0,-100.00,North,0,8.0,19.0,46,-99.99,,,-99.99,,2013-02-22 00:02:00,
2013-02-21 19:11:00,24.0,6.0,-100.00,North,350,4.0,18.0,47,-99.99,,,-99.99,,2013-02-22 00:11:00,
2013-02-21 19:22:00,24.0,6.0,-100.00,North,350,4.0,18.0,47,-99.99,,,-99.99,,2013-02-22 00:22:00,
2013-02-21 19:42:00,22.0,6.0,-100.00,NW,310,8.0,17.0,48,-99.99,,,-99.99,,2013-02-22 00:42:00,
2013-02-21 19:52:00,22.0,6.0,-100.00,NW,310,8.0,17.0,48,-99.99,,,-99.99,,2013-02-22 00:52:00,
2013-02-21 20:01:00,22.0,6.0,-100.00,SW,235,3.0,10.0,49,-99.99,,,-99.99,,2013-02-22 01:01:00,
2013-02-21 20:11:00,21.0,6.0,-100.00,NNW,330,5.0,9.0,51,-99.99,,,-99.99,,2013-02-22 01:11:00,
2013-02-21 20:22:00,21.0,6.0,-100.00,NNW,330,5.0,9.0,51,-99.99,,,-99.99,,2013-02-22 01:22:00,
2013-02-21 20:32:00,21.0,6.0,-100.00,NW,310,5.0,18.0,51,-99.99,,,-99.99,,2013-02-22 01:32:00,
2013-02-21 20:42:00,21.0,6.0,-100.00,NNW,330,9.0,23.0,52,-99.99,,,-99.99,,2013-02-22 01:42:00,
2013-02-21 20:52:00,21.0,6.0,-100.00,NNW,330,9.0,23.0,52,-99.99,,,-99.99,,2013-02-22 01:52:00,
2013-02-21 21:02:00,20.0,6.0,-100.00,NW,315,6.0,17.0,52,-99.99,,,-99.99,,2013-02-22 02:02:00,
2013-02-21 21:11:00,20.0,6.0,-100.00,North,350,5.0,14.0,53,-99.99,,,-99.99,,2013-02-22 02:11:00,
2013-02-21 21:22:00,20.0,6.0,-100.00,North,350,5.0,14.0,53,-99.99,,,-99.99,,2013-02-22 02:22:00,
2013-02-21 21:32:00,20.0,6.0,-100.00,NW,320,5.0,21.0,53,-99.99,,,-99.99,,2013-02-22 02:32:00,
2013-02-21 21:42:00,20.0,6.0,-100.00,NW,320,5.0,21.0,53,-99.99,,,-99.99,,2013-02-22 02:42:00,
2013-02-21 22:11:00,19.0,6.0,-100.00,North,0,6.0,16.0,55,-99.99,,,-99.99,,2013-02-22 03:11:00,
2013-02-21 22:22:00,19.0,6.0,-100.00,North,0,6.0,16.0,55,-99.99,,,-99.99,,2013-02-22 03:22:00,
2013-02-21 22:32:00,19.0,6.0,-100.00,NNE,15,9.0,23.0,56,-99.99,,,-99.99,,2013-02-22 03:32:00,
2013-02-21 22:42:00,18.0,6.0,-100.00,North,0,4.0,19.0,57,-99.99,,,-99.99,,2013-02-22 03:42:00,
2013-02-21 22:52:00,18.0,6.0,-100.00,North,0,4.0,19.0,57,-99.99,,,-99.99,,2013-02-22 03:52:00,
2013-02-21 23:02:00,18.0,6.0,-100.00,North,0,6.0,13.0,58,-99.99,,,-99.99,,2013-02-22 04:02:00,
2013-02-21 23:11:00,18.0,6.0,-100.00,NNW,340,6.0,15.0,59,-99.99,,,-99.99,,2013-02-22 04:11:00,
2013-02-21 23:21:00,18.0,6.0,-100.00,NNW,340,6.0,15.0,59,-99.99,,,-99.99,,2013-02-22 04:21:00,
2013-02-21 23:32:00,18.0,7.0,-100.00,North,0,4.0,13.0,60,-99.99,,,-99.99,,2013-02-22 04:32:00,
2013-02-21 23:42:00,18.0,7.0,-100.00,North,5,4.0,13.0,61,-99.99,,,-99.99,,2013-02-22 04:42:00,
2013-02-21 23:52:00,18.0,7.0,-100.00,North,5,4.0,13.0,61,-99.99,,,-99.99,,2013-02-22 04:52:00,